Miami, FL

5:04 AM EDT on July 28, 2016 (GMT -0400)
JA Richmond West | | Change Station

Elev 7 ft 25.61 °N, 80.43 °W | Updated 3 seconds ago

Partly Cloudy
Partly Cloudy
80.8 °F
Feels Like 85 °F
N
0.0
Wind Variable Wind from North
Gusts 0.0 mph

Today
High -- | Low -- °F
--% Chance of Precip.
Yesterday
High -- | Low -- °F
Precip. -- in
Pressure 30.03 in
Visibility 10.0 miles
Clouds Few 3300 ft
Heat Index 85 °F
Dew Point 73 °F
Humidity 77%
Rainfall 0.00 in
Snow Depth Not available.
6:46 AM 8:09 PM
Waning Crescent, 34% visible
METAR KTMB 280853Z AUTO 05003KT 10SM FEW033 27/23 A3003 RMK AO2 SLP168 T02670233 55002 TSNO
Pressure 30.03 in
Visibility 10.0 miles
Clouds Few 3300 ft
Heat Index 85 °F
Dew Point 73 °F
Humidity 77%
Rainfall 0.00 in
Snow Depth Not available.
6:46 AM 8:09 PM
Waning Crescent, 34% visible
METAR KTMB 280853Z AUTO 05003KT 10SM FEW033 27/23 A3003 RMK AO2 SLP168 T02670233 55002 TSNO

10-Day Weather Forecast

Almanac

Astronomy

Jul. 28, 2016 Rise Set
Actual Time
Civil Twilight
Nautical Twilight
Astronomical Twilight
Moon
Length of Visible Light
Length of Day
Tomorrow will be .
, % of the Moon is Illuminated

Today's Extremes

State Highs State Lows

Community

WunderPhotos

Upload Photos

1,928,070 photos uploaded!

WunderBlog® & News

Nearby

Air Quality

  Air Quality AQ Index Pollutant
Not available.

Snow Depth

Station Depth Elevation

Earthquake Activity

City Distance Mag. Time & Date
Minimum magnitude displayed is 2.5.

Coastal Water Temperatures

Place Temperature

Stations

Nearby Weather Stations

Station Location Temp. Windchill Dew Point Humidity Wind Precip. Elev Updated Type
                   

Watches & Warnings

There are currently no watches in effect.